Elsa — WDB7862 — position and weather

sailwx.info

Track history (hours):
 
Tides and Currents Weather Stations Pressure Air Temp Water Temp Dewpoint Dewpoint Depression Visibility Wind Speed Wind Dir Waves Ship Positions

Elsa

Owner: GP RESOURCES INC., TERMINAL ISLAND, CA. More information available from US FCC via Universal Licensing System and Coast Guard Vessel Documentation Center.

Last reported at 2017-Apr-27 01:17 UTC. Time now 2017-Apr-27 05:23 UTC.
Position N 33°44' W 118°16'.

Length 18 m.

Type: Tug. MMSI: 366949020.

Date/timePositionNaut miles runAvg speedWind from/ knotsBaromVisibWave heightAir tempDewpointWater temp
2017-Apr-27 01:17N 33°44' W 118°16'1 0.0
2017-Apr-26 01:38N 33°45' W 118°16'1 3.8
2017-Apr-26 01:20N 33°44' W 118°16'0 0.0
2017-Apr-25 13:44N 33°44' W 118°16'  
2017-Apr-21 14:26N 33°44' W 118°16'0 0.5
2017-Apr-21 13:30N 33°44' W 118°16'0 0.1
2017-Apr-21 06:58N 33°44' W 118°16'2 4.0
2017-Apr-21 06:25N 33°43' W 118°14'3 6.3
2017-Apr-21 06:00N 33°44' W 118°11'1 1.5
2017-Apr-21 05:30N 33°44' W 118°10'0 0.0
2017-Apr-21 05:00N 33°44' W 118°10'0 0.0
2017-Apr-21 04:30N 33°44' W 118°10'0 0.0
2017-Apr-21 04:00N 33°44' W 118°10'0 0.0
2017-Apr-21 03:30N 33°44' W 118°10'0 0.0
2017-Apr-21 03:00N 33°44' W 118°10'0 0.0
2017-Apr-21 02:30N 33°44' W 118°10'0 0.1
2017-Apr-21 02:00N 33°44' W 118°10'0 0.0
2017-Apr-21 01:30N 33°44' W 118°10'0 0.1
2017-Apr-21 01:00N 33°44' W 118°10'0 0.0
2017-Apr-21 00:30N 33°44' W 118°10'0 0.0
2017-Apr-21 00:00N 33°44' W 118°10'0 0.0
2017-Apr-20 23:30N 33°44' W 118°10'0 0.0
2017-Apr-20 23:00N 33°44' W 118°10'0 0.0
2017-Apr-20 22:30N 33°44' W 118°10'0 0.0
2017-Apr-20 22:00N 33°44' W 118°10'0 0.2
2017-Apr-20 21:29N 33°44' W 118°10'0 0.0
2017-Apr-20 21:00N 33°44' W 118°10'0 0.0
2017-Apr-20 20:30N 33°44' W 118°10'0 0.0
2017-Apr-20 20:00N 33°44' W 118°10'0 0.0
2017-Apr-20 19:30N 33°44' W 118°10'0 0.0
2017-Apr-20 18:51N 33°44' W 118°10'1 3.4
2017-Apr-20 18:29N 33°44' W 118°11'3 5.1
2017-Apr-20 17:57N 33°43' W 118°14'2 3.9
2017-Apr-20 17:28N 33°44' W 118°16'0 0.0
2017-Apr-20 16:59N 33°44' W 118°16'0 0.0
2017-Apr-20 01:40N 33°44' W 118°16'0 1.9
2017-Apr-20 01:30N 33°44' W 118°16'  
2017-Apr-17 20:52N 33°44' W 118°16'0 0.0
2017-Apr-17 20:30N 33°44' W 118°16'0 0.0
2017-Apr-17 19:51N 33°44' W 118°16'0 0.0
2017-Apr-17 13:59N 33°44' W 118°16'  
Track history (hours):
 
Tides and Currents Weather Stations Pressure Air Temp Water Temp Dewpoint Dewpoint Depression Visibility Wind Speed Wind Dir Waves Ship Positions

Elsa

Owner: GP RESOURCES INC., TERMINAL ISLAND, CA. More information available from US FCC via Universal Licensing System and Coast Guard Vessel Documentation Center.

Last reported at 2017-Apr-27 01:17 UTC. Time now 2017-Apr-27 05:23 UTC.
Position N 33°44' W 118°16'.

Length 18 m.

Type: Tug. MMSI: 366949020.

Date/timePositionNaut miles runAvg speedWind from/ knotsBaromVisibWave heightAir tempDewpointWater temp
2017-Apr-27 01:17N 33°44' W 118°16'1 0.0
2017-Apr-26 01:38N 33°45' W 118°16'1 3.8
2017-Apr-26 01:20N 33°44' W 118°16'0 0.0
2017-Apr-25 13:44N 33°44' W 118°16'  
2017-Apr-21 14:26N 33°44' W 118°16'0 0.5
2017-Apr-21 13:30N 33°44' W 118°16'0 0.1
2017-Apr-21 06:58N 33°44' W 118°16'2 4.0
2017-Apr-21 06:25N 33°43' W 118°14'3 6.3
2017-Apr-21 06:00N 33°44' W 118°11'1 1.5
2017-Apr-21 05:30N 33°44' W 118°10'0 0.0
2017-Apr-21 05:00N 33°44' W 118°10'0 0.0
2017-Apr-21 04:30N 33°44' W 118°10'0 0.0
2017-Apr-21 04:00N 33°44' W 118°10'0 0.0
2017-Apr-21 03:30N 33°44' W 118°10'0 0.0
2017-Apr-21 03:00N 33°44' W 118°10'0 0.0
2017-Apr-21 02:30N 33°44' W 118°10'0 0.1
2017-Apr-21 02:00N 33°44' W 118°10'0 0.0
2017-Apr-21 01:30N 33°44' W 118°10'0 0.1
2017-Apr-21 01:00N 33°44' W 118°10'0 0.0
2017-Apr-21 00:30N 33°44' W 118°10'0 0.0
2017-Apr-21 00:00N 33°44' W 118°10'0 0.0
2017-Apr-20 23:30N 33°44' W 118°10'0 0.0
2017-Apr-20 23:00N 33°44' W 118°10'0 0.0
2017-Apr-20 22:30N 33°44' W 118°10'0 0.0
2017-Apr-20 22:00N 33°44' W 118°10'0 0.2
2017-Apr-20 21:29N 33°44' W 118°10'0 0.0
2017-Apr-20 21:00N 33°44' W 118°10'0 0.0
2017-Apr-20 20:30N 33°44' W 118°10'0 0.0
2017-Apr-20 20:00N 33°44' W 118°10'0 0.0
2017-Apr-20 19:30N 33°44' W 118°10'0 0.0
2017-Apr-20 18:51N 33°44' W 118°10'1 3.4
2017-Apr-20 18:29N 33°44' W 118°11'3 5.1
2017-Apr-20 17:57N 33°43' W 118°14'2 3.9
2017-Apr-20 17:28N 33°44' W 118°16'0 0.0
2017-Apr-20 16:59N 33°44' W 118°16'0 0.0
2017-Apr-20 01:40N 33°44' W 118°16'0 1.9
2017-Apr-20 01:30N 33°44' W 118°16'  
2017-Apr-17 20:52N 33°44' W 118°16'0 0.0
2017-Apr-17 20:30N 33°44' W 118°16'0 0.0
2017-Apr-17 19:51N 33°44' W 118°16'0 0.0
2017-Apr-17 13:59N 33°44' W 118°16'  

Dump ship's entire track history